createdAt,value
2022-11-16T00:01:51.137Z,98.13
2022-11-16T00:06:48.856Z,102.05
2022-11-16T00:11:45.152Z,96.15
2022-11-16T00:16:41.419Z,100.55
2022-11-16T00:21:37.630Z,102.65
2022-11-16T00:26:33.857Z,103.88
2022-11-16T00:31:30.107Z,103.68
2022-11-16T00:36:26.388Z,104.57
2022-11-16T00:41:22.591Z,110.70
2022-11-16T00:46:18.812Z,109.68
2022-11-16T00:51:15.040Z,108.20
2022-11-16T00:56:11.304Z,101.95
2022-11-16T01:01:08.626Z,103.30
2022-11-16T01:06:06.451Z,102.30
2022-11-16T01:11:23.167Z,105.97
2022-11-16T01:16:20.325Z,108.15
2022-11-16T01:21:16.705Z,106.57
2022-11-16T01:26:12.928Z,107.05
2022-11-16T01:31:09.642Z,103.00
2022-11-16T01:36:14.276Z,107.05
2022-11-16T01:41:18.139Z,108.75
2022-11-16T01:46:14.397Z,103.15
2022-11-16T01:51:10.851Z,101.97
2022-11-16T01:56:08.305Z,105.10
2022-11-16T02:01:04.639Z,104.03
2022-11-16T02:06:07.247Z,103.82
2022-11-16T02:11:03.413Z,108.15
2022-11-16T02:16:02.769Z,105.32
2022-11-16T02:21:20.343Z,103.93
2022-11-16T02:26:35.466Z,107.32
2022-11-16T02:31:36.474Z,107.63
2022-11-16T02:36:34.245Z,105.55
2022-11-16T02:41:32.304Z,104.95
2022-11-16T02:46:30.825Z,103.78
2022-11-16T02:51:27.618Z,103.03
2022-11-16T02:56:24.025Z,106.68
2022-11-16T03:01:27.867Z,108.10
2022-11-16T03:06:33.243Z,106.95
2022-11-16T03:12:02.838Z,106.90
2022-11-16T03:17:00.250Z,104.82
2022-11-16T03:21:59.300Z,101.68
2022-11-16T03:26:55.458Z,109.15
2022-11-16T03:31:55.989Z,101.70
2022-11-16T03:36:53.005Z,105.03
2022-11-16T03:41:49.657Z,102.15
2022-11-16T03:46:46.697Z,104.22
2022-11-16T03:51:42.889Z,102.35
2022-11-16T03:56:39.084Z,104.22
2022-11-16T04:01:36.581Z,103.28
2022-11-16T04:06:53.283Z,101.68
2022-11-16T04:12:08.837Z,100.45
2022-11-16T04:17:26.788Z,102.20
2022-11-16T04:22:44.759Z,95.53
2022-11-16T04:27:59.683Z,94.95
2022-11-16T04:33:14.639Z,96.07
2022-11-16T04:38:10.843Z,93.88
2022-11-16T04:43:07.338Z,96.65
2022-11-16T04:48:04.064Z,99.55
2022-11-16T04:53:00.314Z,99.95
2022-11-16T04:57:56.562Z,95.00
2022-11-16T05:02:55.707Z,95.45
2022-11-16T05:07:56.060Z,94.15
2022-11-16T05:12:52.302Z,99.63
2022-11-16T05:17:48.615Z,97.20
2022-11-16T05:22:44.846Z,95.97
2022-11-16T05:27:41.028Z,94.18
2022-11-16T05:32:37.270Z,94.13
2022-11-16T05:37:33.524Z,92.65
2022-11-16T05:42:29.848Z,91.53
2022-11-16T05:47:26.072Z,91.32
2022-11-16T05:52:22.324Z,90.38
2022-11-16T05:57:18.542Z,99.95
2022-11-16T06:02:14.809Z,102.65
2022-11-16T06:07:11.040Z,105.25
2022-11-16T06:12:09.105Z,108.25
2022-11-16T06:17:05.379Z,105.63
2022-11-16T06:22:01.573Z,110.80
2022-11-16T06:26:57.838Z,109.90
2022-11-16T06:31:54.019Z,110.03
2022-11-16T06:36:50.433Z,108.80
2022-11-16T06:41:46.664Z,106.30
2022-11-16T06:46:42.909Z,112.55
2022-11-16T06:51:39.193Z,111.15
2022-11-16T06:56:35.509Z,108.20
2022-11-16T07:01:31.809Z,108.78
2022-11-16T07:06:29.129Z,107.53
2022-11-16T07:11:25.320Z,110.45
2022-11-16T07:16:21.974Z,114.53
2022-11-16T07:21:18.892Z,107.28
2022-11-16T07:26:15.089Z,112.40
2022-11-16T07:31:12.923Z,102.50
2022-11-16T07:36:15.353Z,99.88
2022-11-16T07:41:16.475Z,100.15
2022-11-16T07:51:31.589Z,94.65
2022-11-16T07:56:27.891Z,91.43
2022-11-16T08:01:24.169Z,92.80
2022-11-16T08:06:22.793Z,92.35
2022-11-16T08:11:19.489Z,97.78
2022-11-16T08:16:17.978Z,93.63
2022-11-16T08:21:14.962Z,91.38
2022-11-16T08:26:15.828Z,95.20
2022-11-16T08:31:20.918Z,93.57
2022-11-16T08:36:17.464Z,92.13
2022-11-16T08:41:14.037Z,86.45
2022-11-16T08:46:10.564Z,91.43
2022-11-16T08:51:17.593Z,86.70
2022-11-16T08:56:14.646Z,88.72
2022-11-16T09:01:12.323Z,81.70
2022-11-16T09:06:09.451Z,85.45
2022-11-16T09:11:06.254Z,91.60
2022-11-16T09:16:02.796Z,93.05
2022-11-16T09:20:59.209Z,84.90
2022-11-16T09:25:55.451Z,89.05
2022-11-16T09:30:51.770Z,89.05
2022-11-16T09:35:48.090Z,89.53
2022-11-16T09:40:45.425Z,93.45
2022-11-16T09:46:00.494Z,95.05
2022-11-16T09:50:58.830Z,95.05
2022-11-16T09:56:01.135Z,92.57
2022-11-16T10:01:03.126Z,96.05
2022-11-16T10:06:03.212Z,91.03
2022-11-16T10:11:24.109Z,92.55
2022-11-16T10:16:20.257Z,93.80
2022-11-16T10:21:35.986Z,93.53
2022-11-16T10:26:35.942Z,93.68
2022-11-16T10:31:51.424Z,95.13
2022-11-16T10:36:47.662Z,97.68
2022-11-16T10:41:46.371Z,96.68
2022-11-16T10:46:46.662Z,99.18
2022-11-16T10:51:43.258Z,92.53
2022-11-16T10:56:42.504Z,96.97
2022-11-16T11:01:43.557Z,94.55
2022-11-16T11:06:40.191Z,99.78
2022-11-16T11:11:55.250Z,97.20
2022-11-16T11:16:54.557Z,97.32
2022-11-16T11:21:55.077Z,97.15
2022-11-16T11:26:52.973Z,101.43
2022-11-16T11:31:51.186Z,103.15
2022-11-16T11:36:58.154Z,111.15
2022-11-16T11:42:20.457Z,106.90
2022-11-16T11:57:38.727Z,106.93
2022-11-16T12:03:00.216Z,104.32
2022-11-16T12:08:10.381Z,105.85
2022-11-16T12:13:23.151Z,112.72
2022-11-16T12:18:19.321Z,111.72
2022-11-16T12:23:15.485Z,113.70
2022-11-16T12:28:20.796Z,112.13
2022-11-16T12:33:21.789Z,108.07
2022-11-16T12:38:27.753Z,113.72
2022-11-16T12:43:40.391Z,109.68
2022-11-16T12:48:44.386Z,118.93
2022-11-16T12:53:43.396Z,113.78
2022-11-16T12:58:45.407Z,113.63
2022-11-16T13:03:49.011Z,109.38
2022-11-16T13:08:50.598Z,116.38
2022-11-16T13:13:52.910Z,104.25
2022-11-16T13:18:50.657Z,108.97
2022-11-16T13:23:59.334Z,112.47
2022-11-16T13:28:58.537Z,105.30
2022-11-16T13:34:01.156Z,105.32
2022-11-16T13:38:57.488Z,104.18
2022-11-16T13:43:53.808Z,106.38
2022-11-16T13:48:50.783Z,103.00
2022-11-16T13:54:43.118Z,100.22
2022-11-16T13:59:05.166Z,103.68
2022-11-16T14:04:20.733Z,107.70
2022-11-16T14:09:35.677Z,103.43
2022-11-16T14:14:50.451Z,104.47
2022-11-16T14:19:49.759Z,102.95
2022-11-16T14:25:00.893Z,99.47
2022-11-16T14:30:12.280Z,102.57
2022-11-16T14:35:22.600Z,102.75
2022-11-16T14:40:19.399Z,106.30
2022-11-16T14:45:22.417Z,107.78
2022-11-16T14:50:21.582Z,106.53
2022-11-16T14:55:19.273Z,113.05
2022-11-16T15:00:20.156Z,111.68
2022-11-16T15:05:18.567Z,109.97
2022-11-16T15:10:16.602Z,109.40
2022-11-16T15:15:12.819Z,108.22
2022-11-16T15:20:17.069Z,103.13
2022-11-16T15:25:31.882Z,96.47
2022-11-16T15:30:29.417Z,89.35
2022-11-16T15:35:25.581Z,90.60
2022-11-16T15:40:21.823Z,85.22
2022-11-16T15:45:20.840Z,80.97
2022-11-16T15:50:19.195Z,83.25
2022-11-16T15:55:35.635Z,78.22
2022-11-16T16:00:33.108Z,76.60
2022-11-16T16:05:36.768Z,74.70
2022-11-16T16:10:33.084Z,71.80
2022-11-16T16:15:33.991Z,67.63
2022-11-16T16:20:31.756Z,60.30
2022-11-16T16:25:32.091Z,64.10
2022-11-16T16:30:29.059Z,63.42
2022-11-16T16:35:25.746Z,57.70
2022-11-16T16:40:21.922Z,54.75
2022-11-16T16:45:24.441Z,55.33
2022-11-16T16:50:20.627Z,51.15
2022-11-16T16:55:16.841Z,49.55
2022-11-16T17:00:13.361Z,55.50
2022-11-16T17:05:09.812Z,54.38
2022-11-16T17:10:06.186Z,54.22
2022-11-16T17:15:02.398Z,55.00
2022-11-16T17:19:58.604Z,52.42
2022-11-16T17:24:54.832Z,58.50
2022-11-16T17:29:51.030Z,57.08
2022-11-16T17:34:47.237Z,54.50
2022-11-16T17:39:43.463Z,55.00
2022-11-16T17:44:39.638Z,57.53
2022-11-16T17:49:35.982Z,54.00
2022-11-16T17:54:32.258Z,60.72
2022-11-16T17:59:29.963Z,65.07
2022-11-16T18:04:26.366Z,66.00
2022-11-16T18:09:22.773Z,73.65
2022-11-16T18:14:19.036Z,79.65
2022-11-16T18:19:16.105Z,83.15
2022-11-16T18:24:12.785Z,83.93
2022-11-16T18:29:12.064Z,85.88
2022-11-16T18:34:08.303Z,94.20
2022-11-16T18:39:04.504Z,94.00
2022-11-16T18:44:01.780Z,97.70
2022-11-16T18:48:58.073Z,99.57
2022-11-16T18:53:54.650Z,100.10
2022-11-16T18:58:52.743Z,98.38
2022-11-16T19:03:50.066Z,103.03
2022-11-16T19:08:52.176Z,103.72
2022-11-16T19:13:55.974Z,110.57
2022-11-16T19:18:52.583Z,111.20
2022-11-16T19:23:50.297Z,113.85
2022-11-16T19:28:47.315Z,114.25
2022-11-16T19:33:44.459Z,112.80
2022-11-16T19:38:41.060Z,112.55
2022-11-16T19:43:37.636Z,117.32
2022-11-16T19:48:34.198Z,118.72
2022-11-16T19:53:30.541Z,122.53
2022-11-16T19:58:26.792Z,120.00
2022-11-16T20:03:22.989Z,123.40
2022-11-16T20:08:19.205Z,121.05
2022-11-16T20:13:15.578Z,120.70
2022-11-16T20:18:11.758Z,125.28
2022-11-16T20:23:08.062Z,123.63
2022-11-16T20:28:04.494Z,126.22
2022-11-16T20:33:00.692Z,124.97
2022-11-16T20:37:56.948Z,122.70
2022-11-16T20:42:57.735Z,121.18
2022-11-16T20:47:53.965Z,119.20
2022-11-16T20:52:52.803Z,116.35
2022-11-16T20:57:49.218Z,112.53
2022-11-16T21:02:45.423Z,118.57
2022-11-16T21:07:42.799Z,120.15
2022-11-16T21:12:57.492Z,115.75
2022-11-16T21:17:53.802Z,109.18
2022-11-16T21:22:50.038Z,111.28
2022-11-16T21:27:47.142Z,107.65
2022-11-16T21:32:43.383Z,103.13
2022-11-16T21:37:39.573Z,90.53
2022-11-16T21:42:35.802Z,91.88
2022-11-16T21:47:32.004Z,90.55
2022-11-16T21:52:28.855Z,79.38
2022-11-16T21:57:25.060Z,80.07
2022-11-16T22:02:21.343Z,64.45
2022-11-16T22:07:32.692Z,68.57
2022-11-16T22:12:29.167Z,56.00
2022-11-16T22:17:25.558Z,48.85
2022-11-16T22:22:22.057Z,44.58
2022-11-16T22:27:18.659Z,44.83
2022-11-16T22:32:14.865Z,39.22
2022-11-16T22:37:11.046Z,37.90
2022-11-16T22:42:07.283Z,34.72
2022-11-16T22:47:03.470Z,35.00
2022-11-16T22:51:59.652Z,30.20
2022-11-16T22:56:55.854Z,25.30
2022-11-16T23:01:52.080Z,24.90
2022-11-16T23:06:49.260Z,23.65
2022-11-16T23:12:03.937Z,20.83
2022-11-16T23:17:00.511Z,20.40
2022-11-16T23:22:15.472Z,20.77
2022-11-16T23:27:29.970Z,17.98
2022-11-16T23:32:26.193Z,19.52
2022-11-16T23:37:22.397Z,18.83
2022-11-16T23:42:37.109Z,17.55
2022-11-16T23:47:33.295Z,18.40
2022-11-16T23:52:29.494Z,17.25
2022-11-16T23:57:25.675Z,17.13
